createdAt,value
2019-05-05T00:01:51.003Z,96411.00
2019-05-05T00:04:28.051Z,96420.00
2019-05-05T00:06:57.403Z,96414.00
2019-05-05T00:09:26.805Z,96420.00
2019-05-05T00:12:06.929Z,96421.00
2019-05-05T00:14:37.903Z,96429.00
2019-05-05T00:17:11.834Z,96427.00
2019-05-05T00:19:41.243Z,96430.00
2019-05-05T00:22:10.603Z,96431.00
2019-05-05T00:24:39.944Z,96424.00
2019-05-05T00:27:09.266Z,96430.00
2019-05-05T00:29:38.695Z,96432.00
2019-05-05T00:32:08.099Z,96424.00
2019-05-05T00:34:37.859Z,96421.00
2019-05-05T00:37:07.190Z,96427.00
2019-05-05T00:39:36.624Z,96431.00
2019-05-05T00:42:06.027Z,96427.00
2019-05-05T00:44:35.450Z,96428.00
2019-05-05T00:47:15.522Z,96435.00
2019-05-05T00:49:49.302Z,96435.00
2019-05-05T00:52:17.568Z,96436.00
2019-05-05T00:54:46.995Z,96433.00
2019-05-05T00:57:16.398Z,96425.00
2019-05-05T00:59:45.753Z,96440.00
2019-05-05T01:02:22.556Z,96439.00
2019-05-05T01:04:55.104Z,96437.00
2019-05-05T01:07:24.837Z,96441.00
2019-05-05T01:09:54.393Z,96455.00
2019-05-05T01:12:24.476Z,96435.00
2019-05-05T01:14:55.239Z,96449.00
2019-05-05T01:17:25.419Z,96454.00
2019-05-05T01:20:03.454Z,96451.00
2019-05-05T01:22:26.074Z,96461.00
2019-05-05T01:24:55.627Z,96469.00
2019-05-05T01:27:25.562Z,96478.00
2019-05-05T01:29:55.045Z,96478.00
2019-05-05T01:32:29.126Z,96480.00
2019-05-05T01:34:58.493Z,96490.00
2019-05-05T01:37:35.220Z,96488.00
2019-05-05T01:40:14.285Z,96496.00
2019-05-05T01:42:44.665Z,96484.00
2019-05-05T01:45:14.926Z,96489.00
2019-05-05T01:47:45.313Z,96478.00
2019-05-05T01:50:20.645Z,96484.00
2019-05-05T01:52:46.103Z,96488.00
2019-05-05T01:55:15.535Z,96499.00
2019-05-05T01:57:45.298Z,96497.00
2019-05-05T02:00:15.067Z,96483.00
2019-05-05T02:02:45.047Z,96491.00
2019-05-05T02:05:14.953Z,96501.00
2019-05-05T02:07:45.023Z,96501.00
2019-05-05T02:10:15.431Z,96493.00
2019-05-05T02:12:44.944Z,96497.00
2019-05-05T02:15:15.125Z,96493.00
2019-05-05T02:17:44.764Z,96485.00
2019-05-05T02:20:40.066Z,96493.00
2019-05-05T02:23:10.910Z,96478.00
2019-05-05T02:25:40.328Z,96486.00
2019-05-05T02:28:09.805Z,96496.00
2019-05-05T02:30:50.334Z,96484.00
2019-05-05T02:33:20.807Z,96491.00
2019-05-05T02:35:50.230Z,96489.00
2019-05-05T02:38:19.727Z,96489.00
2019-05-05T02:40:50.419Z,96493.00
2019-05-05T02:43:20.471Z,96488.00
2019-05-05T02:46:05.504Z,96497.00
2019-05-05T02:48:35.745Z,96509.00
2019-05-05T02:51:07.180Z,96500.00
2019-05-05T02:53:44.696Z,96496.00
2019-05-05T02:56:23.792Z,96494.00
2019-05-05T02:58:55.911Z,96495.00
2019-05-05T03:01:30.136Z,96496.00
2019-05-05T03:04:00.855Z,96503.00
2019-05-05T03:06:30.347Z,96490.00
2019-05-05T03:09:00.923Z,96497.00
2019-05-05T03:11:34.328Z,96488.00
2019-05-05T03:14:06.827Z,96500.00
2019-05-05T03:16:39.168Z,96493.00
2019-05-05T03:19:10.243Z,96495.00
2019-05-05T03:21:40.252Z,96477.00
2019-05-05T03:24:09.991Z,96483.00
2019-05-05T03:26:40.988Z,96487.00
2019-05-05T03:29:15.100Z,96493.00
2019-05-05T03:31:46.084Z,96498.00
2019-05-05T03:34:16.665Z,96506.00
2019-05-05T03:36:46.632Z,96493.00
2019-05-05T03:39:23.745Z,96499.00
2019-05-05T03:42:01.070Z,96509.00
2019-05-05T03:44:35.258Z,96511.00
2019-05-05T03:47:05.158Z,96518.00
2019-05-05T03:49:34.931Z,96522.00
2019-05-05T03:52:04.915Z,96527.00
2019-05-05T03:54:34.876Z,96541.00
2019-05-05T03:57:07.766Z,96535.00
2019-05-05T03:59:40.274Z,96543.00
2019-05-05T04:02:14.061Z,96548.00
2019-05-05T04:04:44.216Z,96545.00
2019-05-05T04:07:14.055Z,96554.00
2019-05-05T04:09:43.991Z,96562.00
2019-05-05T04:12:14.186Z,96561.00
2019-05-05T04:14:45.360Z,96572.00
2019-05-05T04:17:28.304Z,96577.00
2019-05-05T04:20:15.241Z,96581.00
2019-05-05T04:22:44.605Z,96587.00
2019-05-05T04:25:14.020Z,96581.00
2019-05-05T04:27:44.495Z,96592.00
2019-05-05T04:30:14.404Z,96597.00
2019-05-05T04:32:44.337Z,96604.00
2019-05-05T04:35:14.198Z,96605.00
2019-05-05T04:37:43.913Z,96598.00
2019-05-05T04:40:14.857Z,96609.00
2019-05-05T04:42:44.347Z,96601.00
2019-05-05T04:45:14.932Z,96610.00
2019-05-05T04:47:48.912Z,96615.00
2019-05-05T04:50:20.098Z,96616.00
2019-05-05T04:52:51.442Z,96606.00
2019-05-05T04:55:20.838Z,96617.00
2019-05-05T04:57:50.215Z,96618.00
2019-05-05T05:00:19.682Z,96623.00
2019-05-05T05:02:56.688Z,96635.00
2019-05-05T05:05:30.270Z,96636.00
2019-05-05T05:07:59.644Z,96647.00
2019-05-05T05:10:28.982Z,96643.00
2019-05-05T05:12:58.374Z,96644.00
2019-05-05T05:15:27.699Z,96649.00
2019-05-05T05:20:48.492Z,96658.00
2019-05-05T05:23:17.918Z,96653.00
2019-05-05T05:25:47.257Z,96664.00
2019-05-05T05:28:16.620Z,96663.00
2019-05-05T05:30:46.015Z,96668.00
2019-05-05T05:33:15.444Z,96670.00
2019-05-05T05:35:44.849Z,96666.00
2019-05-05T05:38:14.291Z,96671.00
2019-05-05T05:40:48.238Z,96670.00
2019-05-05T05:43:19.242Z,96663.00
2019-05-05T05:45:56.310Z,96676.00
2019-05-05T05:48:27.311Z,96683.00
2019-05-05T05:51:00.964Z,96685.00
2019-05-05T05:53:30.329Z,96685.00
2019-05-05T05:55:59.657Z,96685.00
2019-05-05T05:58:28.989Z,96689.00
2019-05-05T06:00:58.617Z,96682.00
2019-05-05T06:03:28.020Z,96682.00
2019-05-05T06:05:57.379Z,96701.00
2019-05-05T06:08:26.716Z,96699.00
2019-05-05T06:10:56.076Z,96702.00
2019-05-05T06:13:25.788Z,96706.00
2019-05-05T06:15:55.142Z,96705.00
2019-05-05T06:18:24.519Z,96713.00
2019-05-05T06:20:53.956Z,96718.00
2019-05-05T06:23:24.075Z,96723.00
2019-05-05T06:25:55.189Z,96731.00
2019-05-05T06:28:24.672Z,96735.00
2019-05-05T06:30:54.666Z,96728.00
2019-05-05T06:33:24.313Z,96736.00
2019-05-05T06:35:53.794Z,96752.00
2019-05-05T06:38:24.123Z,96752.00
2019-05-05T06:41:11.696Z,96762.00
2019-05-05T06:43:44.114Z,96771.00
2019-05-05T06:46:15.339Z,96763.00
2019-05-05T06:48:44.753Z,96770.00
2019-05-05T06:51:14.194Z,96761.00
2019-05-05T06:53:43.708Z,96766.00
2019-05-05T06:56:14.550Z,96771.00
2019-05-05T06:58:44.818Z,96768.00
2019-05-05T07:01:14.478Z,96755.00
2019-05-05T07:03:44.023Z,96768.00
2019-05-05T07:06:14.648Z,96777.00
2019-05-05T07:08:44.108Z,96778.00
2019-05-05T07:11:14.505Z,96772.00
2019-05-05T07:13:44.411Z,96774.00
2019-05-05T07:16:15.034Z,96787.00
2019-05-05T07:18:44.736Z,96783.00
2019-05-05T07:21:14.454Z,96790.00
2019-05-05T07:23:44.550Z,96790.00
2019-05-05T07:26:14.537Z,96789.00
2019-05-05T07:28:45.145Z,96783.00
2019-05-05T07:31:14.556Z,96791.00
2019-05-05T07:33:44.730Z,96791.00
2019-05-05T07:36:34.230Z,96792.00
2019-05-05T07:39:05.572Z,96802.00
2019-05-05T07:41:35.566Z,96801.00
2019-05-05T07:44:05.137Z,96792.00
2019-05-05T07:46:34.778Z,96799.00
2019-05-05T07:49:04.187Z,96806.00
2019-05-05T07:51:33.784Z,96797.00
2019-05-05T07:54:03.921Z,96809.00
2019-05-05T07:56:34.352Z,96809.00
2019-05-05T07:59:04.151Z,96826.00
2019-05-05T08:01:33.858Z,96813.00
2019-05-05T08:04:04.490Z,96828.00
2019-05-05T08:06:34.153Z,96839.00
2019-05-05T08:09:05.558Z,96832.00
2019-05-05T08:11:34.919Z,96833.00
2019-05-05T08:14:04.314Z,96834.00
2019-05-05T08:16:41.288Z,96838.00
2019-05-05T08:19:27.221Z,96839.00
2019-05-05T08:21:56.648Z,96837.00
2019-05-05T08:24:30.330Z,96846.00
2019-05-05T08:27:01.466Z,96843.00
2019-05-05T08:29:34.381Z,96844.00
2019-05-05T08:32:23.785Z,96849.00
2019-05-05T08:34:59.880Z,96852.00
2019-05-05T08:37:24.217Z,96851.00
2019-05-05T08:39:54.060Z,96857.00
2019-05-05T08:42:24.687Z,96855.00
2019-05-05T08:44:54.213Z,96857.00
2019-05-05T08:47:24.610Z,96852.00
2019-05-05T08:49:54.763Z,96853.00
2019-05-05T08:52:24.194Z,96852.00
2019-05-05T08:54:54.264Z,96851.00
2019-05-05T08:57:23.762Z,96853.00
2019-05-05T08:59:54.493Z,96845.00
2019-05-05T09:02:24.210Z,96857.00
2019-05-05T09:04:53.887Z,96845.00
2019-05-05T09:07:24.321Z,96850.00
2019-05-05T09:09:54.676Z,96849.00
2019-05-05T09:12:24.209Z,96851.00
2019-05-05T09:14:54.013Z,96843.00
2019-05-05T09:17:24.320Z,96833.00
2019-05-05T09:19:54.548Z,96836.00
2019-05-05T09:22:24.574Z,96836.00
2019-05-05T09:25:04.762Z,96847.00
2019-05-05T09:27:38.772Z,96836.00
2019-05-05T09:30:14.123Z,96834.00
2019-05-05T09:32:43.842Z,96853.00
2019-05-05T09:35:13.972Z,96836.00
2019-05-05T09:37:44.412Z,96845.00
2019-05-05T09:40:18.042Z,96844.00
2019-05-05T09:42:47.369Z,96847.00
2019-05-05T09:45:16.860Z,96841.00
2019-05-05T09:47:46.293Z,96848.00
2019-05-05T09:50:15.779Z,96845.00
2019-05-05T09:52:45.114Z,96847.00
2019-05-05T09:55:14.643Z,96843.00
2019-05-05T09:57:44.143Z,96848.00
2019-05-05T10:00:14.828Z,96848.00
2019-05-05T10:02:44.720Z,96855.00
2019-05-05T10:05:15.743Z,96850.00
2019-05-05T10:07:45.210Z,96852.00
2019-05-05T10:10:15.218Z,96859.00
2019-05-05T10:12:44.746Z,96851.00
2019-05-05T10:15:14.615Z,96855.00
2019-05-05T10:17:44.408Z,96853.00
2019-05-05T10:20:14.608Z,96848.00
2019-05-05T10:22:44.088Z,96856.00
2019-05-05T10:25:34.178Z,96855.00
2019-05-05T10:28:04.396Z,96858.00
2019-05-05T10:30:34.911Z,96848.00
2019-05-05T10:33:04.384Z,96855.00
2019-05-05T10:35:34.570Z,96859.00
2019-05-05T10:38:04.153Z,96868.00
2019-05-05T10:40:34.647Z,96863.00
2019-05-05T10:43:04.606Z,96871.00
2019-05-05T10:45:34.262Z,96863.00
2019-05-05T10:48:05.265Z,96871.00
2019-05-05T10:50:34.999Z,96866.00
2019-05-05T10:53:04.807Z,96868.00
2019-05-05T10:55:35.945Z,96874.00
2019-05-05T10:58:05.628Z,96872.00
2019-05-05T11:00:54.357Z,96866.00
2019-05-05T11:03:23.792Z,96864.00
2019-05-05T11:05:53.794Z,96853.00
2019-05-05T11:08:24.539Z,96853.00
2019-05-05T11:10:53.977Z,96855.00
2019-05-05T11:13:24.035Z,96854.00
2019-05-05T11:15:54.739Z,96850.00
2019-05-05T11:18:24.364Z,96855.00
2019-05-05T11:20:54.889Z,96854.00
2019-05-05T11:23:25.029Z,96849.00
2019-05-05T11:25:54.658Z,96860.00
2019-05-05T11:28:24.168Z,96853.00
2019-05-05T11:30:54.071Z,96858.00
2019-05-05T11:33:25.049Z,96857.00
2019-05-05T11:35:58.580Z,96842.00
2019-05-05T11:38:28.079Z,96844.00
2019-05-05T11:40:57.767Z,96850.00
2019-05-05T11:43:27.098Z,96838.00
2019-05-05T11:45:56.624Z,96844.00
2019-05-05T11:48:26.260Z,96847.00
2019-05-05T11:50:55.753Z,96849.00
2019-05-05T11:53:25.296Z,96854.00
2019-05-05T11:55:55.287Z,96846.00
2019-05-05T11:58:25.166Z,96842.00
2019-05-05T12:00:54.871Z,96841.00
2019-05-05T12:03:24.509Z,96837.00
2019-05-05T12:05:53.934Z,96846.00
2019-05-05T12:08:23.854Z,96856.00
2019-05-05T12:10:55.380Z,96848.00
2019-05-05T12:13:24.891Z,96851.00
2019-05-05T12:16:01.665Z,96857.00
2019-05-05T12:18:31.067Z,96856.00
2019-05-05T12:21:00.704Z,96859.00
2019-05-05T12:23:30.055Z,96851.00
2019-05-05T12:26:17.393Z,96862.00
2019-05-05T12:28:48.533Z,96854.00
2019-05-05T12:31:24.593Z,96857.00
2019-05-05T12:33:54.779Z,96855.00
2019-05-05T12:36:25.381Z,96854.00
2019-05-05T12:38:54.858Z,96860.00
2019-05-05T12:41:24.302Z,96859.00
2019-05-05T12:43:54.870Z,96849.00
2019-05-05T12:46:29.850Z,96849.00
2019-05-05T12:49:00.460Z,96850.00
2019-05-05T12:51:31.442Z,96862.00
2019-05-05T12:54:00.921Z,96861.00
2019-05-05T12:56:34.037Z,96852.00
2019-05-05T12:59:05.100Z,96846.00
2019-05-05T13:01:38.534Z,96841.00
2019-05-05T13:04:07.942Z,96847.00
2019-05-05T13:06:37.649Z,96854.00
2019-05-05T13:09:08.392Z,96849.00
2019-05-05T13:11:37.821Z,96855.00
2019-05-05T13:14:07.297Z,96850.00
2019-05-05T13:16:36.730Z,96850.00
2019-05-05T13:19:07.867Z,96848.00
2019-05-05T13:21:44.079Z,96857.00
2019-05-05T13:24:20.477Z,96851.00
2019-05-05T13:26:51.563Z,96850.00
2019-05-05T13:29:20.903Z,96840.00
2019-05-05T13:31:50.343Z,96868.00
2019-05-05T13:34:19.719Z,96855.00
2019-05-05T13:36:49.101Z,96855.00
2019-05-05T13:39:18.502Z,96853.00
2019-05-05T13:41:47.866Z,96849.00
2019-05-05T13:44:24.658Z,96855.00
2019-05-05T13:46:54.161Z,96847.00
2019-05-05T13:49:25.142Z,96846.00
2019-05-05T13:51:54.517Z,96851.00
2019-05-05T13:54:24.316Z,96865.00
2019-05-05T13:56:53.841Z,96863.00
2019-05-05T13:59:25.511Z,96862.00
2019-05-05T14:01:54.656Z,96853.00
2019-05-05T14:04:23.992Z,96854.00
2019-05-05T14:06:54.399Z,96850.00
2019-05-05T14:09:23.863Z,96857.00
2019-05-05T14:11:53.587Z,96849.00
2019-05-05T14:14:24.278Z,96860.00
2019-05-05T14:16:54.003Z,96857.00
2019-05-05T14:19:24.811Z,96860.00
2019-05-05T14:21:54.302Z,96871.00
2019-05-05T14:24:25.309Z,96860.00
2019-05-05T14:26:54.651Z,96870.00
2019-05-05T14:29:41.985Z,96869.00
2019-05-05T14:32:13.518Z,96867.00
2019-05-05T14:34:44.759Z,96860.00
2019-05-05T14:37:34.054Z,96869.00
2019-05-05T14:40:05.463Z,96871.00
2019-05-05T14:42:34.844Z,96871.00
2019-05-05T14:45:06.016Z,96872.00
2019-05-05T14:47:35.439Z,96869.00
2019-05-05T14:50:06.014Z,96872.00
2019-05-05T14:52:35.420Z,96868.00
2019-05-05T14:55:07.298Z,96883.00
2019-05-05T14:57:36.642Z,96874.00
2019-05-05T15:00:13.675Z,96883.00
2019-05-05T15:02:43.881Z,96876.00
2019-05-05T15:05:31.504Z,96875.00
2019-05-05T15:08:02.493Z,96875.00
2019-05-05T15:10:48.793Z,96861.00
2019-05-05T15:13:20.310Z,96879.00
2019-05-05T15:15:49.808Z,96871.00
2019-05-05T15:18:19.319Z,96887.00
2019-05-05T15:20:51.666Z,96874.00
2019-05-05T15:23:19.754Z,96871.00
2019-05-05T15:25:49.120Z,96876.00
2019-05-05T15:28:18.522Z,96868.00
2019-05-05T15:30:47.898Z,96871.00
2019-05-05T15:33:17.309Z,96875.00
2019-05-05T15:35:46.712Z,96865.00
2019-05-05T15:38:16.175Z,96865.00
2019-05-05T15:40:48.084Z,96871.00
2019-05-05T15:43:16.814Z,96871.00
2019-05-05T15:45:46.378Z,96871.00
2019-05-05T15:48:15.772Z,96874.00
2019-05-05T15:50:45.572Z,96875.00
2019-05-05T15:53:15.042Z,96868.00
2019-05-05T15:55:44.802Z,96871.00
2019-05-05T15:58:14.294Z,96881.00
2019-05-05T16:00:44.313Z,96885.00
2019-05-05T16:03:13.925Z,96883.00
2019-05-05T16:05:43.722Z,96874.00
2019-05-05T16:08:16.159Z,96878.00
2019-05-05T16:10:46.571Z,96878.00
2019-05-05T16:13:16.594Z,96884.00
2019-05-05T16:15:47.600Z,96879.00
2019-05-05T16:18:24.608Z,96879.00
2019-05-05T16:21:07.815Z,96881.00
2019-05-05T16:23:39.072Z,96875.00
2019-05-05T16:26:08.574Z,96877.00
2019-05-05T16:28:37.988Z,96885.00
2019-05-05T16:31:07.507Z,96888.00
2019-05-05T16:33:36.852Z,96875.00
2019-05-05T16:36:06.485Z,96882.00
2019-05-05T16:38:36.033Z,96881.00
2019-05-05T16:41:05.499Z,96888.00
2019-05-05T16:43:34.839Z,96886.00
2019-05-05T16:46:04.346Z,96884.00
2019-05-05T16:48:34.395Z,96891.00
2019-05-05T16:51:05.565Z,96897.00
2019-05-05T16:53:35.843Z,96890.00
2019-05-05T16:56:14.011Z,96901.00
2019-05-05T16:58:45.039Z,96902.00
2019-05-05T17:01:16.292Z,96895.00
2019-05-05T17:03:46.042Z,96893.00
2019-05-05T17:06:15.489Z,96892.00
2019-05-05T17:08:44.891Z,96892.00
2019-05-05T17:11:15.226Z,96891.00
2019-05-05T17:13:55.411Z,96899.00
2019-05-05T17:16:44.211Z,96893.00
2019-05-05T17:19:15.294Z,96896.00
2019-05-05T17:21:53.598Z,96899.00
2019-05-05T17:24:23.963Z,96900.00
2019-05-05T17:26:54.990Z,96899.00
2019-05-05T17:29:24.457Z,96906.00
2019-05-05T17:31:54.143Z,96902.00
2019-05-05T17:34:24.758Z,96910.00
2019-05-05T17:36:54.287Z,96911.00
2019-05-05T17:39:25.342Z,96911.00
2019-05-05T17:41:56.605Z,96916.00
2019-05-05T17:44:27.595Z,96912.00
2019-05-05T17:47:11.010Z,96919.00
2019-05-05T17:49:56.974Z,96906.00
2019-05-05T17:52:44.202Z,96919.00
2019-05-05T17:55:15.319Z,96920.00
2019-05-05T17:57:44.677Z,96916.00
2019-05-05T18:00:14.819Z,96922.00
2019-05-05T18:02:44.189Z,96924.00
2019-05-05T18:05:14.030Z,96915.00
2019-05-05T18:07:45.269Z,96923.00
2019-05-05T18:10:17.247Z,96915.00
2019-05-05T18:12:48.314Z,96923.00
2019-05-05T18:15:35.582Z,96917.00
2019-05-05T18:18:05.074Z,96919.00
2019-05-05T18:20:34.407Z,96923.00
2019-05-05T18:23:03.841Z,96930.00
2019-05-05T18:25:34.670Z,96927.00
2019-05-05T18:28:15.742Z,96933.00
2019-05-05T18:30:35.698Z,96939.00
2019-05-05T18:33:05.181Z,96937.00
2019-05-05T18:35:34.582Z,96947.00
2019-05-05T18:38:04.211Z,96938.00
2019-05-05T18:40:33.803Z,96947.00
2019-05-05T18:43:04.860Z,96949.00
2019-05-05T18:45:35.528Z,96947.00
2019-05-05T18:48:05.186Z,96956.00
2019-05-05T18:50:34.777Z,96958.00
2019-05-05T18:53:04.683Z,96958.00
2019-05-05T18:55:34.056Z,96961.00
2019-05-05T18:58:05.131Z,96962.00
2019-05-05T19:00:48.012Z,96960.00
2019-05-05T19:03:35.192Z,96969.00
2019-05-05T19:06:06.172Z,96963.00
2019-05-05T19:08:37.179Z,96974.00
2019-05-05T19:11:06.577Z,96981.00
2019-05-05T19:13:35.934Z,96982.00
2019-05-05T19:16:05.262Z,96978.00
2019-05-05T19:18:34.621Z,96977.00
2019-05-05T19:21:05.760Z,96979.00
2019-05-05T19:23:35.638Z,96987.00
2019-05-05T19:26:07.659Z,96987.00
2019-05-05T19:28:44.439Z,96998.00
2019-05-05T19:31:07.434Z,96983.00
2019-05-05T19:33:36.791Z,97002.00
2019-05-05T19:36:06.142Z,96993.00
2019-05-05T19:38:35.510Z,96998.00
2019-05-05T19:41:04.915Z,96993.00
2019-05-05T19:43:36.766Z,96989.00
2019-05-05T19:46:07.033Z,97000.00
2019-05-05T19:48:36.386Z,96998.00
2019-05-05T19:51:07.489Z,96993.00
2019-05-05T19:53:36.867Z,97000.00
2019-05-05T19:56:06.273Z,97003.00
2019-05-05T19:58:36.565Z,97005.00
2019-05-05T20:01:06.345Z,97004.00
2019-05-05T20:03:35.983Z,97011.00
2019-05-05T20:06:05.898Z,97005.00
2019-05-05T20:08:40.977Z,97008.00
2019-05-05T20:11:06.575Z,97007.00
2019-05-05T20:13:35.902Z,97006.00
2019-05-05T20:16:09.785Z,97013.00
2019-05-05T20:18:39.115Z,97001.00
2019-05-05T20:21:08.479Z,96998.00
2019-05-05T20:23:37.809Z,97005.00
2019-05-05T20:26:07.392Z,97000.00
2019-05-05T20:28:36.740Z,97011.00
2019-05-05T20:31:06.150Z,97005.00
2019-05-05T20:33:46.160Z,97000.00
2019-05-05T20:36:17.153Z,97003.00
2019-05-05T20:38:48.128Z,97013.00
2019-05-05T20:41:19.057Z,97015.00
2019-05-05T20:43:48.525Z,97002.00
2019-05-05T20:46:17.952Z,97009.00
2019-05-05T20:48:47.350Z,96998.00
2019-05-05T20:51:16.709Z,97006.00
2019-05-05T20:53:49.102Z,97004.00
2019-05-05T20:56:17.399Z,97001.00
2019-05-05T20:58:46.799Z,97007.00
2019-05-05T21:01:16.518Z,97006.00
2019-05-05T21:03:45.856Z,97001.00
2019-05-05T21:06:15.213Z,96996.00
2019-05-05T21:08:44.714Z,96997.00
2019-05-05T21:11:14.368Z,96990.00
2019-05-05T21:13:45.049Z,96993.00
2019-05-05T21:16:14.613Z,96991.00
2019-05-05T21:18:43.947Z,96998.00
2019-05-05T21:21:15.014Z,96993.00
2019-05-05T21:23:46.261Z,96990.00
2019-05-05T21:26:17.584Z,96989.00
2019-05-05T21:28:47.153Z,96985.00
2019-05-05T21:31:16.734Z,96987.00
2019-05-05T21:33:46.459Z,96985.00
2019-05-05T21:36:16.143Z,96989.00
2019-05-05T21:38:45.537Z,96985.00
2019-05-05T21:41:14.959Z,96984.00
2019-05-05T21:43:44.931Z,96982.00
2019-05-05T21:46:14.571Z,96987.00
2019-05-05T21:48:46.377Z,96983.00
2019-05-05T21:51:35.014Z,96984.00
2019-05-05T21:54:23.547Z,96983.00
2019-05-05T21:57:14.068Z,96976.00
2019-05-05T21:59:54.882Z,96972.00
2019-05-05T22:02:15.338Z,96987.00
2019-05-05T22:04:44.793Z,96980.00
2019-05-05T22:07:14.579Z,96981.00
2019-05-05T22:09:44.115Z,96975.00
2019-05-05T22:12:13.640Z,96976.00
2019-05-05T22:14:43.924Z,96982.00
2019-05-05T22:17:14.615Z,96974.00
2019-05-05T22:19:58.075Z,96976.00
2019-05-05T22:22:29.095Z,96982.00
2019-05-05T22:24:58.427Z,96976.00
2019-05-05T22:27:27.786Z,96973.00
2019-05-05T22:30:09.156Z,96970.00
2019-05-05T22:32:28.296Z,96978.00
2019-05-05T22:34:57.634Z,96975.00
2019-05-05T22:37:26.994Z,96979.00
2019-05-05T22:39:56.336Z,96970.00
2019-05-05T22:42:25.765Z,96974.00
2019-05-05T22:44:55.106Z,96981.00
2019-05-05T22:47:24.469Z,96973.00
2019-05-05T22:49:54.057Z,96972.00
2019-05-05T22:52:25.439Z,96971.00
2019-05-05T22:54:54.468Z,96969.00
2019-05-05T22:57:24.741Z,96975.00
2019-05-05T22:59:54.293Z,96974.00
2019-05-05T23:02:25.464Z,96974.00
2019-05-05T23:04:59.135Z,96965.00
2019-05-05T23:07:34.797Z,96971.00
2019-05-05T23:10:04.844Z,96971.00
2019-05-05T23:12:35.081Z,96966.00
2019-05-05T23:15:08.450Z,96958.00
2019-05-05T23:17:43.682Z,96972.00
2019-05-05T23:20:24.959Z,96963.00
2019-05-05T23:22:56.040Z,96966.00
2019-05-05T23:25:27.012Z,96961.00
2019-05-05T23:27:56.447Z,96965.00
2019-05-05T23:30:38.558Z,96960.00
2019-05-05T23:32:57.022Z,96969.00
2019-05-05T23:35:26.425Z,96966.00
2019-05-05T23:37:55.798Z,96956.00
2019-05-05T23:40:28.059Z,96957.00
2019-05-05T23:42:57.415Z,96955.00
2019-05-05T23:45:26.757Z,96962.00
2019-05-05T23:47:56.192Z,96963.00
2019-05-05T23:50:25.771Z,96972.00
2019-05-05T23:52:55.179Z,96960.00
2019-05-05T23:55:24.553Z,96962.00
2019-05-05T23:57:54.911Z,96963.00
